A- A+ FrançaisEnglishEspañol中国

Services sur Internet Soldes sur Internet Des idées de cadeaux Météo Météo aéro

La météo à : Autours de vous Tarbes-Lourdes-PyrénéesDreux-Vernouillet La-Baule-Escoublac Meaux-Esbly

manche à air

La météo aéronautique pour les pilotes, la préparation du vol avec les METAR (METeorological Aerodrome Report, message d'observation des conditions météorologiques pour l'aviation) et Les TAF (Terminal Aerodrome Forecast : message de prévision à court terme des conditions météorologiques pour l'aviation). Et les autres ressources comme les VAC (Visual Approch Chart) et les NOTAM (Notice To Airman) pour préprer les vols.

Aéroport Sligo (Irlande) / OACI EISG/ IATA SXL

L'altitude de l'aéroport Sligo est de 3 m = 10 ft. Il est situé à proximité de Sligo (Irlande). La météo générale à 5 jours est disponible pour Bundoran situé à 30.1 km.

METAR de l'aéroport Sligo - EISG

EISG 271630Z 36007KT 9999 FEW020CB FEW045 09/05 Q1027

Décodage du METAR de l'aéroport Sligo (IE)

METAR émis par EISG le dimanche 27 octobre 2019 à 16:30 heure TU. Attention ce METAR est obsolète car il a été émis il y a 20 heure et 7 minutes.

La visibilité est de supérieure à 10 km = supérieure à 6.2 sm.

La température est de 9°C = 48 °F et le point rosée est de 5°C = 41 °F . Ce qui correspond à 76% d'humidité relative.

Le QNH est de 1027 hPa = 30.33 inHg

Vent de 7 kt = 13 km/h, orienté à 360°.

Nuages : Quelques nuages à 2000 ft = 610 mètres. Quelques nuages à 4500 ft = 1370 mètres.

TAF de l'aéroport Sligo - EISG

EISG 082300Z 0900/0909 32030G50KT 9999 FEW012 BKN030 TEMPO 0900/0903 5000 SHRA BKN014 SCT018CB BECMG 0901/0903 32020G40KT BECMG 0905/0907 32015G30KT BECMG 0907/0909 32012KT

EISG 082300Z 0900/0909 32030G50KT 9999 quelques nuages à 012 couverture nuageuse fragmentée à 030 temporairement 0900/0903 5000 SHRA couverture nuageuse fragmentée à 014 nuages épars à 018CB devenant 0901/0903 32020G40KT devenant 0905/0907 32015G30KT devenant 0907/0909 32012KT

Aéroport à proximité de Sligo

Météo générale à 5 jours à Bundoran (30.1 km)Aéroport Connaught (44 km)Aéroport Enniskillen (63 km)Aéroport Donegal (87 km)Aéroport Belmullet (93 km)Aéroport Letterkenny (96 km)Aéroport Abbeyshrule (99 km)

Vue aérienne de l'aéroport Sligo

NOTAM de l'aéroport Sligo

Les NOTAM sont fournis sans aucune garantie de leur actualité. Le pilote est le seul responsable de la vérification de sa validité avant de l'utiliser opérationnellement pour préparer un vol ou l'utiliser lors de sa navigation.

Pas de NOTAM

Sources des données